sensor_id;sensor_type;location;lat;lon;timestamp;temperature;humidity
8400;DHT22;4237;47.030;15.396;2022-11-20T00:01:37;1.60;99.90
8400;DHT22;4237;47.030;15.396;2022-11-20T00:04:06;1.60;99.90
8400;DHT22;4237;47.030;15.396;2022-11-20T00:06:34;1.60;99.90
8400;DHT22;4237;47.030;15.396;2022-11-20T00:09:03;1.60;99.90
8400;DHT22;4237;47.030;15.396;2022-11-20T00:11:32;1.60;99.90
8400;DHT22;4237;47.030;15.396;2022-11-20T00:14:02;1.60;99.90
8400;DHT22;4237;47.030;15.396;2022-11-20T00:16:32;1.70;99.90
8400;DHT22;4237;47.030;15.396;2022-11-20T00:19:01;1.70;99.90
8400;DHT22;4237;47.030;15.396;2022-11-20T00:21:30;1.70;99.90
8400;DHT22;4237;47.030;15.396;2022-11-20T00:23:58;1.80;99.90
8400;DHT22;4237;47.030;15.396;2022-11-20T00:26:28;1.80;99.90
8400;DHT22;4237;47.030;15.396;2022-11-20T00:28:59;1.70;99.90
8400;DHT22;4237;47.030;15.396;2022-11-20T00:31:30;1.70;99.90
8400;DHT22;4237;47.030;15.396;2022-11-20T00:34:00;1.60;99.90
8400;DHT22;4237;47.030;15.396;2022-11-20T00:36:31;1.60;99.90
8400;DHT22;4237;47.030;15.396;2022-11-20T00:38:59;1.60;99.90
8400;DHT22;4237;47.030;15.396;2022-11-20T00:41:29;1.60;99.90
8400;DHT22;4237;47.030;15.396;2022-11-20T00:43:57;1.60;99.90
8400;DHT22;4237;47.030;15.396;2022-11-20T00:46:27;1.70;99.90
8400;DHT22;4237;47.030;15.396;2022-11-20T00:48:57;1.60;99.90
8400;DHT22;4237;47.030;15.396;2022-11-20T00:51:27;1.60;99.90
8400;DHT22;4237;47.030;15.396;2022-11-20T00:53:57;1.60;99.90
8400;DHT22;4237;47.030;15.396;2022-11-20T00:56:27;1.60;99.90
8400;DHT22;4237;47.030;15.396;2022-11-20T00:58:59;1.60;99.90
8400;DHT22;4237;47.030;15.396;2022-11-20T01:01:28;1.70;99.90
8400;DHT22;4237;47.030;15.396;2022-11-20T01:03:59;1.70;99.90
8400;DHT22;4237;47.030;15.396;2022-11-20T01:06:33;1.70;99.90
8400;DHT22;4237;47.030;15.396;2022-11-20T01:09:10;1.80;99.90
8400;DHT22;4237;47.030;15.396;2022-11-20T01:11:36;1.80;99.90
8400;DHT22;4237;47.030;15.396;2022-11-20T01:14:08;1.80;99.90
8400;DHT22;4237;47.030;15.396;2022-11-20T01:16:39;1.80;99.90
8400;DHT22;4237;47.030;15.396;2022-11-20T01:19:10;1.90;99.90
8400;DHT22;4237;47.030;15.396;2022-11-20T01:21:41;1.90;99.90
8400;DHT22;4237;47.030;15.396;2022-11-20T01:24:16;1.90;99.90
8400;DHT22;4237;47.030;15.396;2022-11-20T01:26:47;1.90;99.90
8400;DHT22;4237;47.030;15.396;2022-11-20T01:29:23;1.80;99.90
8400;DHT22;4237;47.030;15.396;2022-11-20T01:31:47;1.80;99.90
8400;DHT22;4237;47.030;15.396;2022-11-20T01:34:18;1.80;99.90
8400;DHT22;4237;47.030;15.396;2022-11-20T01:36:51;1.80;99.90
8400;DHT22;4237;47.030;15.396;2022-11-20T01:39:25;1.80;99.90
8400;DHT22;4237;47.030;15.396;2022-11-20T01:41:55;1.80;99.90
8400;DHT22;4237;47.030;15.396;2022-11-20T01:44:51;1.70;99.90
8400;DHT22;4237;47.030;15.396;2022-11-20T01:47:37;1.70;99.90
8400;DHT22;4237;47.030;15.396;2022-11-20T01:50:15;1.70;99.90
8400;DHT22;4237;47.030;15.396;2022-11-20T01:52:45;1.80;99.90
8400;DHT22;4237;47.030;15.396;2022-11-20T01:55:18;1.80;99.90
8400;DHT22;4237;47.030;15.396;2022-11-20T01:57:49;1.70;99.90
8400;DHT22;4237;47.030;15.396;2022-11-20T02:00:19;1.60;99.90
8400;DHT22;4237;47.030;15.396;2022-11-20T02:02:56;1.60;99.90
8400;DHT22;4237;47.030;15.396;2022-11-20T02:08:10;1.70;99.90
8400;DHT22;4237;47.030;15.396;2022-11-20T02:10:39;1.70;99.90
8400;DHT22;4237;47.030;15.396;2022-11-20T02:13:08;1.70;99.90
8400;DHT22;4237;47.030;15.396;2022-11-20T02:15:55;1.70;99.90
8400;DHT22;4237;47.030;15.396;2022-11-20T02:18:24;1.70;99.90
8400;DHT22;4237;47.030;15.396;2022-11-20T02:20:59;1.70;99.90
8400;DHT22;4237;47.030;15.396;2022-11-20T02:23:38;1.70;99.90
8400;DHT22;4237;47.030;15.396;2022-11-20T02:26:01;1.70;99.90
8400;DHT22;4237;47.030;15.396;2022-11-20T02:28:31;1.70;99.90
8400;DHT22;4237;47.030;15.396;2022-11-20T02:31:00;1.70;99.90
8400;DHT22;4237;47.030;15.396;2022-11-20T02:33:29;1.70;99.90
8400;DHT22;4237;47.030;15.396;2022-11-20T02:35:57;1.60;99.90
8400;DHT22;4237;47.030;15.396;2022-11-20T02:38:26;1.70;99.90
8400;DHT22;4237;47.030;15.396;2022-11-20T02:40:55;1.70;99.90
8400;DHT22;4237;47.030;15.396;2022-11-20T02:43:23;1.70;99.90
8400;DHT22;4237;47.030;15.396;2022-11-20T02:45:52;1.60;99.90
8400;DHT22;4237;47.030;15.396;2022-11-20T02:48:20;1.60;99.90
8400;DHT22;4237;47.030;15.396;2022-11-20T02:50:49;1.60;99.90
8400;DHT22;4237;47.030;15.396;2022-11-20T02:53:17;1.60;99.90
8400;DHT22;4237;47.030;15.396;2022-11-20T02:55:47;1.60;99.90
8400;DHT22;4237;47.030;15.396;2022-11-20T02:58:15;1.60;99.90
8400;DHT22;4237;47.030;15.396;2022-11-20T03:00:44;1.60;99.90
8400;DHT22;4237;47.030;15.396;2022-11-20T03:03:12;1.60;99.90
8400;DHT22;4237;47.030;15.396;2022-11-20T03:05:41;1.60;99.90
8400;DHT22;4237;47.030;15.396;2022-11-20T03:08:09;1.60;99.90
8400;DHT22;4237;47.030;15.396;2022-11-20T03:10:38;1.60;99.90
8400;DHT22;4237;47.030;15.396;2022-11-20T03:13:06;1.60;99.90
8400;DHT22;4237;47.030;15.396;2022-11-20T03:15:36;1.60;99.90
8400;DHT22;4237;47.030;15.396;2022-11-20T03:18:05;1.60;99.90
8400;DHT22;4237;47.030;15.396;2022-11-20T03:20:34;1.70;99.90
8400;DHT22;4237;47.030;15.396;2022-11-20T03:23:03;1.70;99.90
8400;DHT22;4237;47.030;15.396;2022-11-20T03:25:32;1.80;99.90
8400;DHT22;4237;47.030;15.396;2022-11-20T03:28:01;1.80;99.90
8400;DHT22;4237;47.030;15.396;2022-11-20T03:30:29;1.80;99.90
8400;DHT22;4237;47.030;15.396;2022-11-20T03:32:58;1.80;99.90
8400;DHT22;4237;47.030;15.396;2022-11-20T03:35:27;1.80;99.90
8400;DHT22;4237;47.030;15.396;2022-11-20T03:37:57;1.80;99.90
8400;DHT22;4237;47.030;15.396;2022-11-20T03:40:26;1.80;99.90
8400;DHT22;4237;47.030;15.396;2022-11-20T03:42:54;1.80;99.90
8400;DHT22;4237;47.030;15.396;2022-11-20T03:45:23;1.80;99.90
8400;DHT22;4237;47.030;15.396;2022-11-20T03:47:52;1.80;99.90
8400;DHT22;4237;47.030;15.396;2022-11-20T03:50:21;1.80;99.90
8400;DHT22;4237;47.030;15.396;2022-11-20T03:52:50;1.80;99.90
8400;DHT22;4237;47.030;15.396;2022-11-20T03:55:18;1.80;99.90
8400;DHT22;4237;47.030;15.396;2022-11-20T03:57:47;1.70;99.90
8400;DHT22;4237;47.030;15.396;2022-11-20T04:00:15;1.70;99.90
8400;DHT22;4237;47.030;15.396;2022-11-20T04:02:44;1.70;99.90
8400;DHT22;4237;47.030;15.396;2022-11-20T04:05:13;1.70;99.90
8400;DHT22;4237;47.030;15.396;2022-11-20T04:07:41;1.70;99.90
8400;DHT22;4237;47.030;15.396;2022-11-20T04:10:10;1.70;99.90
8400;DHT22;4237;47.030;15.396;2022-11-20T04:12:38;1.60;99.90
8400;DHT22;4237;47.030;15.396;2022-11-20T04:15:07;1.70;99.90
8400;DHT22;4237;47.030;15.396;2022-11-20T04:17:36;1.70;99.90
8400;DHT22;4237;47.030;15.396;2022-11-20T04:20:06;1.60;99.90
8400;DHT22;4237;47.030;15.396;2022-11-20T04:22:35;1.70;99.90
8400;DHT22;4237;47.030;15.396;2022-11-20T04:25:04;1.70;99.90
8400;DHT22;4237;47.030;15.396;2022-11-20T04:27:32;1.70;99.90
8400;DHT22;4237;47.030;15.396;2022-11-20T04:30:01;1.70;99.90
8400;DHT22;4237;47.030;15.396;2022-11-20T04:32:30;1.70;99.90
8400;DHT22;4237;47.030;15.396;2022-11-20T04:34:58;1.70;99.90
8400;DHT22;4237;47.030;15.396;2022-11-20T04:37:27;1.70;99.90
8400;DHT22;4237;47.030;15.396;2022-11-20T04:39:55;1.80;99.90
8400;DHT22;4237;47.030;15.396;2022-11-20T04:42:24;1.70;99.90
8400;DHT22;4237;47.030;15.396;2022-11-20T04:44:58;1.70;99.90
8400;DHT22;4237;47.030;15.396;2022-11-20T04:47:26;1.70;99.90
8400;DHT22;4237;47.030;15.396;2022-11-20T04:49:55;1.70;99.90
8400;DHT22;4237;47.030;15.396;2022-11-20T04:52:24;1.70;99.90
8400;DHT22;4237;47.030;15.396;2022-11-20T04:54:52;1.60;99.90
8400;DHT22;4237;47.030;15.396;2022-11-20T04:57:21;1.60;99.90
8400;DHT22;4237;47.030;15.396;2022-11-20T04:59:50;1.70;99.90
8400;DHT22;4237;47.030;15.396;2022-11-20T05:02:18;1.70;99.90
8400;DHT22;4237;47.030;15.396;2022-11-20T05:04:47;1.70;99.90
8400;DHT22;4237;47.030;15.396;2022-11-20T05:07:16;1.70;99.90
8400;DHT22;4237;47.030;15.396;2022-11-20T05:09:44;1.70;99.90
8400;DHT22;4237;47.030;15.396;2022-11-20T05:12:13;1.70;99.90
8400;DHT22;4237;47.030;15.396;2022-11-20T05:14:41;1.70;99.90
8400;DHT22;4237;47.030;15.396;2022-11-20T05:17:11;1.70;99.90
8400;DHT22;4237;47.030;15.396;2022-11-20T05:19:40;1.70;99.90
8400;DHT22;4237;47.030;15.396;2022-11-20T05:22:08;1.70;99.90
8400;DHT22;4237;47.030;15.396;2022-11-20T05:24:37;1.70;99.90
8400;DHT22;4237;47.030;15.396;2022-11-20T05:27:05;1.60;99.90
8400;DHT22;4237;47.030;15.396;2022-11-20T05:29:34;1.70;99.90
8400;DHT22;4237;47.030;15.396;2022-11-20T05:32:03;1.70;99.90
8400;DHT22;4237;47.030;15.396;2022-11-20T05:34:33;1.70;99.90
8400;DHT22;4237;47.030;15.396;2022-11-20T05:37:02;1.70;99.90
8400;DHT22;4237;47.030;15.396;2022-11-20T05:39:31;1.60;99.90
8400;DHT22;4237;47.030;15.396;2022-11-20T05:41:59;1.60;99.90
8400;DHT22;4237;47.030;15.396;2022-11-20T05:44:46;1.60;99.90
8400;DHT22;4237;47.030;15.396;2022-11-20T05:47:15;1.60;99.90
8400;DHT22;4237;47.030;15.396;2022-11-20T05:49:43;1.60;99.90
8400;DHT22;4237;47.030;15.396;2022-11-20T05:52:12;1.60;99.90
8400;DHT22;4237;47.030;15.396;2022-11-20T05:54:40;1.60;99.90
8400;DHT22;4237;47.030;15.396;2022-11-20T05:57:09;1.60;99.90
8400;DHT22;4237;47.030;15.396;2022-11-20T05:59:37;1.60;99.90
8400;DHT22;4237;47.030;15.396;2022-11-20T06:02:06;1.70;99.90
8400;DHT22;4237;47.030;15.396;2022-11-20T06:04:34;1.70;99.90
8400;DHT22;4237;47.030;15.396;2022-11-20T06:07:05;1.70;99.90
8400;DHT22;4237;47.030;15.396;2022-11-20T06:09:34;1.80;99.90
8400;DHT22;4237;47.030;15.396;2022-11-20T06:12:03;1.80;99.90
8400;DHT22;4237;47.030;15.396;2022-11-20T06:14:32;1.80;99.90
8400;DHT22;4237;47.030;15.396;2022-11-20T06:17:01;1.90;99.90
8400;DHT22;4237;47.030;15.396;2022-11-20T06:19:29;1.90;99.90
8400;DHT22;4237;47.030;15.396;2022-11-20T06:21:58;1.80;99.90
8400;DHT22;4237;47.030;15.396;2022-11-20T06:24:26;1.90;99.90
8400;DHT22;4237;47.030;15.396;2022-11-20T06:26:55;1.90;99.90
8400;DHT22;4237;47.030;15.396;2022-11-20T06:29:24;1.90;99.90
8400;DHT22;4237;47.030;15.396;2022-11-20T06:31:52;1.90;99.90
8400;DHT22;4237;47.030;15.396;2022-11-20T06:34:21;1.90;99.90
8400;DHT22;4237;47.030;15.396;2022-11-20T06:36:49;1.90;99.90
8400;DHT22;4237;47.030;15.396;2022-11-20T06:39:18;2.00;99.90
8400;DHT22;4237;47.030;15.396;2022-11-20T06:41:46;2.10;99.90
8400;DHT22;4237;47.030;15.396;2022-11-20T06:44:15;2.10;99.90
8400;DHT22;4237;47.030;15.396;2022-11-20T06:46:43;2.20;99.90
8400;DHT22;4237;47.030;15.396;2022-11-20T06:49:12;2.20;99.90
8400;DHT22;4237;47.030;15.396;2022-11-20T06:51:41;2.20;99.90
8400;DHT22;4237;47.030;15.396;2022-11-20T06:54:09;2.20;99.90
8400;DHT22;4237;47.030;15.396;2022-11-20T06:56:38;2.30;99.90
8400;DHT22;4237;47.030;15.396;2022-11-20T06:59:07;2.30;99.90
8400;DHT22;4237;47.030;15.396;2022-11-20T07:01:36;2.30;99.90
8400;DHT22;4237;47.030;15.396;2022-11-20T07:04:04;2.40;99.90
8400;DHT22;4237;47.030;15.396;2022-11-20T07:06:33;2.40;99.90
8400;DHT22;4237;47.030;15.396;2022-11-20T07:09:01;2.50;99.90
8400;DHT22;4237;47.030;15.396;2022-11-20T07:11:30;2.50;99.90
8400;DHT22;4237;47.030;15.396;2022-11-20T07:13:59;2.50;99.90
8400;DHT22;4237;47.030;15.396;2022-11-20T07:16:27;2.60;99.90
8400;DHT22;4237;47.030;15.396;2022-11-20T07:18:56;2.60;99.90
8400;DHT22;4237;47.030;15.396;2022-11-20T07:21:25;2.70;99.90
8400;DHT22;4237;47.030;15.396;2022-11-20T07:23:53;2.70;99.90
8400;DHT22;4237;47.030;15.396;2022-11-20T07:26:22;2.70;99.90
8400;DHT22;4237;47.030;15.396;2022-11-20T07:28:51;2.80;99.90
8400;DHT22;4237;47.030;15.396;2022-11-20T07:31:20;2.90;99.90
8400;DHT22;4237;47.030;15.396;2022-11-20T07:33:48;3.00;99.90
8400;DHT22;4237;47.030;15.396;2022-11-20T07:36:17;3.10;99.90
8400;DHT22;4237;47.030;15.396;2022-11-20T07:38:46;3.30;99.90
8400;DHT22;4237;47.030;15.396;2022-11-20T07:41:15;3.40;99.90
8400;DHT22;4237;47.030;15.396;2022-11-20T07:43:43;3.60;99.90
8400;DHT22;4237;47.030;15.396;2022-11-20T07:46:12;3.70;99.90
8400;DHT22;4237;47.030;15.396;2022-11-20T07:48:41;3.70;99.90
8400;DHT22;4237;47.030;15.396;2022-11-20T07:51:09;3.80;99.90
8400;DHT22;4237;47.030;15.396;2022-11-20T07:53:38;4.00;99.90
8400;DHT22;4237;47.030;15.396;2022-11-20T07:56:07;4.10;99.90
8400;DHT22;4237;47.030;15.396;2022-11-20T07:58:35;4.00;99.90
8400;DHT22;4237;47.030;15.396;2022-11-20T08:01:07;4.00;99.90
8400;DHT22;4237;47.030;15.396;2022-11-20T08:03:36;4.10;99.90
8400;DHT22;4237;47.030;15.396;2022-11-20T08:06:08;4.10;99.90
8400;DHT22;4237;47.030;15.396;2022-11-20T08:08:36;4.20;99.90
8400;DHT22;4237;47.030;15.396;2022-11-20T08:11:07;4.20;99.90
8400;DHT22;4237;47.030;15.396;2022-11-20T08:13:40;4.20;99.90
8400;DHT22;4237;47.030;15.396;2022-11-20T08:16:27;4.00;99.90
8400;DHT22;4237;47.030;15.396;2022-11-20T08:18:55;3.90;99.90
8400;DHT22;4237;47.030;15.396;2022-11-20T08:21:23;3.80;99.90
8400;DHT22;4237;47.030;15.396;2022-11-20T08:23:52;3.70;99.90
8400;DHT22;4237;47.030;15.396;2022-11-20T08:26:21;3.70;99.90
8400;DHT22;4237;47.030;15.396;2022-11-20T08:28:55;3.80;99.90
8400;DHT22;4237;47.030;15.396;2022-11-20T08:31:25;3.90;99.90
8400;DHT22;4237;47.030;15.396;2022-11-20T08:33:55;3.90;99.90
8400;DHT22;4237;47.030;15.396;2022-11-20T08:36:24;4.00;99.90
8400;DHT22;4237;47.030;15.396;2022-11-20T08:38:55;4.00;99.90
8400;DHT22;4237;47.030;15.396;2022-11-20T08:41:23;4.10;99.90
8400;DHT22;4237;47.030;15.396;2022-11-20T08:44:01;4.10;99.90
8400;DHT22;4237;47.030;15.396;2022-11-20T08:46:32;4.20;99.90
8400;DHT22;4237;47.030;15.396;2022-11-20T08:48:57;4.30;99.90
8400;DHT22;4237;47.030;15.396;2022-11-20T08:51:25;4.30;99.90
8400;DHT22;4237;47.030;15.396;2022-11-20T08:53:54;4.50;99.90
8400;DHT22;4237;47.030;15.396;2022-11-20T08:56:22;4.40;99.90
8400;DHT22;4237;47.030;15.396;2022-11-20T08:58:52;4.50;99.90
8400;DHT22;4237;47.030;15.396;2022-11-20T09:01:22;4.70;99.90
8400;DHT22;4237;47.030;15.396;2022-11-20T09:03:51;4.80;99.90
8400;DHT22;4237;47.030;15.396;2022-11-20T09:06:20;4.80;99.90
8400;DHT22;4237;47.030;15.396;2022-11-20T09:08:53;4.90;99.90
8400;DHT22;4237;47.030;15.396;2022-11-20T09:11:22;4.90;99.90
8400;DHT22;4237;47.030;15.396;2022-11-20T09:13:50;5.00;99.90
8400;DHT22;4237;47.030;15.396;2022-11-20T09:16:19;5.00;99.90
8400;DHT22;4237;47.030;15.396;2022-11-20T09:19:07;5.00;99.90
8400;DHT22;4237;47.030;15.396;2022-11-20T09:21:36;5.00;99.90
8400;DHT22;4237;47.030;15.396;2022-11-20T09:24:05;5.10;99.90
8400;DHT22;4237;47.030;15.396;2022-11-20T09:26:34;5.30;99.90
8400;DHT22;4237;47.030;15.396;2022-11-20T09:29:03;5.40;99.90
8400;DHT22;4237;47.030;15.396;2022-11-20T09:31:31;5.50;99.90
8400;DHT22;4237;47.030;15.396;2022-11-20T09:34:00;5.50;99.90
8400;DHT22;4237;47.030;15.396;2022-11-20T09:36:28;5.70;99.90
8400;DHT22;4237;47.030;15.396;2022-11-20T09:38:57;5.80;99.90
8400;DHT22;4237;47.030;15.396;2022-11-20T09:44:20;6.00;99.90
8400;DHT22;4237;47.030;15.396;2022-11-20T09:46:53;6.10;99.90
8400;DHT22;4237;47.030;15.396;2022-11-20T09:49:34;6.10;99.90
8400;DHT22;4237;47.030;15.396;2022-11-20T09:52:12;6.30;99.90
8400;DHT22;4237;47.030;15.396;2022-11-20T09:54:39;6.30;99.90
8400;DHT22;4237;47.030;15.396;2022-11-20T09:57:21;6.50;99.90
8400;DHT22;4237;47.030;15.396;2022-11-20T10:00:00;6.50;99.90
8400;DHT22;4237;47.030;15.396;2022-11-20T10:02:45;6.80;99.90
8400;DHT22;4237;47.030;15.396;2022-11-20T10:10:33;8.30;99.90
8400;DHT22;4237;47.030;15.396;2022-11-20T10:15:49;9.50;99.90
8400;DHT22;4237;47.030;15.396;2022-11-20T10:21:11;10.40;99.90
